sensor_id;sensor_type;location;lat;lon;timestamp;P1;durP1;ratioP1;P2;durP2;ratioP2
32523;SDS011;18965;52.242;20.886;2022-11-15T00:07:25;24.23;;;12.93;;
32523;SDS011;18965;52.242;20.886;2022-11-15T00:20:19;34.63;;;16.20;;
32523;SDS011;18965;52.242;20.886;2022-11-15T00:22:49;39.05;;;17.00;;
32523;SDS011;18965;52.242;20.886;2022-11-15T00:25:24;36.70;;;17.27;;
32523;SDS011;18965;52.242;20.886;2022-11-15T00:28:29;27.95;;;15.10;;
32523;SDS011;18965;52.242;20.886;2022-11-15T00:34:39;33.83;;;17.42;;
32523;SDS011;18965;52.242;20.886;2022-11-15T00:38:00;55.50;;;21.58;;
32523;SDS011;18965;52.242;20.886;2022-11-15T00:40:46;36.72;;;17.75;;
32523;SDS011;18965;52.242;20.886;2022-11-15T00:43:18;35.75;;;18.48;;
32523;SDS011;18965;52.242;20.886;2022-11-15T00:45:44;38.53;;;19.13;;
32523;SDS011;18965;52.242;20.886;2022-11-15T00:48:10;42.65;;;20.13;;
32523;SDS011;18965;52.242;20.886;2022-11-15T00:54:11;36.28;;;19.10;;
32523;SDS011;18965;52.242;20.886;2022-11-15T00:56:49;45.85;;;21.35;;
32523;SDS011;18965;52.242;20.886;2022-11-15T00:59:15;39.97;;;20.23;;
32523;SDS011;18965;52.242;20.886;2022-11-15T01:01:41;40.47;;;19.23;;
32523;SDS011;18965;52.242;20.886;2022-11-15T01:04:09;37.60;;;19.55;;
32523;SDS011;18965;52.242;20.886;2022-11-15T01:06:44;41.13;;;20.25;;
32523;SDS011;18965;52.242;20.886;2022-11-15T01:09:10;40.45;;;19.15;;
32523;SDS011;18965;52.242;20.886;2022-11-15T01:11:47;37.45;;;19.25;;
32523;SDS011;18965;52.242;20.886;2022-11-15T01:14:39;40.60;;;20.58;;
32523;SDS011;18965;52.242;20.886;2022-11-15T01:20:12;39.35;;;20.27;;
32523;SDS011;18965;52.242;20.886;2022-11-15T01:22:41;45.85;;;21.13;;
32523;SDS011;18965;52.242;20.886;2022-11-15T01:29:10;40.67;;;19.10;;
32523;SDS011;18965;52.242;20.886;2022-11-15T01:31:42;41.33;;;19.50;;
32523;SDS011;18965;52.242;20.886;2022-11-15T01:34:28;44.17;;;20.90;;
32523;SDS011;18965;52.242;20.886;2022-11-15T01:37:04;41.63;;;19.73;;
32523;SDS011;18965;52.242;20.886;2022-11-15T01:40:12;42.63;;;21.23;;
32523;SDS011;18965;52.242;20.886;2022-11-15T01:42:57;38.70;;;20.38;;
32523;SDS011;18965;52.242;20.886;2022-11-15T01:45:22;41.97;;;19.38;;
32523;SDS011;18965;52.242;20.886;2022-11-15T01:47:52;37.22;;;19.58;;
32523;SDS011;18965;52.242;20.886;2022-11-15T01:53:47;41.15;;;19.58;;
32523;SDS011;18965;52.242;20.886;2022-11-15T01:59:51;41.05;;;18.70;;
32523;SDS011;18965;52.242;20.886;2022-11-15T02:02:23;39.47;;;20.08;;
32523;SDS011;18965;52.242;20.886;2022-11-15T02:05:25;51.63;;;21.50;;
32523;SDS011;18965;52.242;20.886;2022-11-15T02:08:16;39.58;;;19.83;;
32523;SDS011;18965;52.242;20.886;2022-11-15T02:10:45;42.25;;;20.45;;
32523;SDS011;18965;52.242;20.886;2022-11-15T02:13:13;49.45;;;22.70;;
32523;SDS011;18965;52.242;20.886;2022-11-15T02:22:51;47.70;;;22.23;;
32523;SDS011;18965;52.242;20.886;2022-11-15T02:26:07;48.47;;;22.65;;
32523;SDS011;18965;52.242;20.886;2022-11-15T02:41:25;38.00;;;20.30;;
32523;SDS011;18965;52.242;20.886;2022-11-15T02:44:48;45.08;;;22.10;;
32523;SDS011;18965;52.242;20.886;2022-11-15T02:50:32;48.30;;;22.58;;
32523;SDS011;18965;52.242;20.886;2022-11-15T02:56:16;47.35;;;22.05;;
32523;SDS011;18965;52.242;20.886;2022-11-15T02:59:10;50.03;;;24.42;;
32523;SDS011;18965;52.242;20.886;2022-11-15T03:02:40;41.25;;;19.60;;
32523;SDS011;18965;52.242;20.886;2022-11-15T03:15:37;43.50;;;22.52;;
32523;SDS011;18965;52.242;20.886;2022-11-15T03:21:42;44.95;;;22.67;;
32523;SDS011;18965;52.242;20.886;2022-11-15T03:24:44;44.58;;;21.92;;
32523;SDS011;18965;52.242;20.886;2022-11-15T03:30:49;43.35;;;22.30;;
32523;SDS011;18965;52.242;20.886;2022-11-15T03:34:04;57.67;;;22.98;;
32523;SDS011;18965;52.242;20.886;2022-11-15T03:50:13;40.75;;;20.20;;
32523;SDS011;18965;52.242;20.886;2022-11-15T03:55:38;47.78;;;22.27;;
32523;SDS011;18965;52.242;20.886;2022-11-15T03:58:27;44.28;;;22.40;;
32523;SDS011;18965;52.242;20.886;2022-11-15T04:04:31;49.08;;;22.13;;
32523;SDS011;18965;52.242;20.886;2022-11-15T04:07:04;45.42;;;21.38;;
32523;SDS011;18965;52.242;20.886;2022-11-15T04:09:30;50.67;;;24.00;;
32523;SDS011;18965;52.242;20.886;2022-11-15T04:12:22;43.00;;;21.83;;
32523;SDS011;18965;52.242;20.886;2022-11-15T04:15:17;41.28;;;20.45;;
32523;SDS011;18965;52.242;20.886;2022-11-15T04:17:57;46.47;;;22.25;;
32523;SDS011;18965;52.242;20.886;2022-11-15T04:20:44;41.40;;;19.75;;
32523;SDS011;18965;52.242;20.886;2022-11-15T04:23:28;48.08;;;22.23;;
32523;SDS011;18965;52.242;20.886;2022-11-15T04:26:20;46.70;;;21.75;;
32523;SDS011;18965;52.242;20.886;2022-11-15T04:32:21;47.25;;;21.77;;
32523;SDS011;18965;52.242;20.886;2022-11-15T04:37:54;39.38;;;19.88;;
32523;SDS011;18965;52.242;20.886;2022-11-15T04:40:24;42.10;;;19.70;;
32523;SDS011;18965;52.242;20.886;2022-11-15T04:43:19;39.33;;;19.27;;
32523;SDS011;18965;52.242;20.886;2022-11-15T04:45:56;44.83;;;20.17;;
32523;SDS011;18965;52.242;20.886;2022-11-15T04:48:24;50.30;;;21.65;;
32523;SDS011;18965;52.242;20.886;2022-11-15T04:51:02;46.47;;;22.30;;
32523;SDS011;18965;52.242;20.886;2022-11-15T04:56:22;50.70;;;21.10;;
32523;SDS011;18965;52.242;20.886;2022-11-15T05:05:24;54.63;;;24.23;;
32523;SDS011;18965;52.242;20.886;2022-11-15T05:08:56;45.13;;;20.10;;
32523;SDS011;18965;52.242;20.886;2022-11-15T05:14:55;44.17;;;19.98;;
32523;SDS011;18965;52.242;20.886;2022-11-15T05:17:32;44.17;;;20.25;;
32523;SDS011;18965;52.242;20.886;2022-11-15T05:20:14;50.70;;;22.85;;
32523;SDS011;18965;52.242;20.886;2022-11-15T05:22:53;53.20;;;22.90;;
32523;SDS011;18965;52.242;20.886;2022-11-15T05:25:35;45.17;;;20.52;;
32523;SDS011;18965;52.242;20.886;2022-11-15T05:32:09;43.17;;;19.38;;
32523;SDS011;18965;52.242;20.886;2022-11-15T05:34:37;46.67;;;20.33;;
32523;SDS011;18965;52.242;20.886;2022-11-15T05:37:14;51.63;;;22.95;;
32523;SDS011;18965;52.242;20.886;2022-11-15T05:40:34;48.67;;;22.02;;
32523;SDS011;18965;52.242;20.886;2022-11-15T05:43:18;42.58;;;20.23;;
32523;SDS011;18965;52.242;20.886;2022-11-15T05:46:00;44.47;;;19.73;;
32523;SDS011;18965;52.242;20.886;2022-11-15T05:48:38;42.75;;;18.48;;
32523;SDS011;18965;52.242;20.886;2022-11-15T05:51:48;41.20;;;18.70;;
32523;SDS011;18965;52.242;20.886;2022-11-15T05:57:41;38.95;;;18.17;;
32523;SDS011;18965;52.242;20.886;2022-11-15T06:00:18;48.15;;;20.48;;
32523;SDS011;18965;52.242;20.886;2022-11-15T06:02:44;47.95;;;20.05;;
32523;SDS011;18965;52.242;20.886;2022-11-15T06:05:15;45.08;;;18.88;;
32523;SDS011;18965;52.242;20.886;2022-11-15T06:07:46;47.63;;;20.48;;
32523;SDS011;18965;52.242;20.886;2022-11-15T06:10:15;41.42;;;18.27;;
32523;SDS011;18965;52.242;20.886;2022-11-15T06:12:44;47.10;;;18.75;;
32523;SDS011;18965;52.242;20.886;2022-11-15T06:15:10;47.55;;;18.52;;
32523;SDS011;18965;52.242;20.886;2022-11-15T06:17:38;44.70;;;19.73;;
32523;SDS011;18965;52.242;20.886;2022-11-15T06:20:07;43.50;;;19.05;;
32523;SDS011;18965;52.242;20.886;2022-11-15T06:22:33;46.45;;;20.25;;
32523;SDS011;18965;52.242;20.886;2022-11-15T06:25:10;45.00;;;20.30;;
32523;SDS011;18965;52.242;20.886;2022-11-15T06:27:58;45.97;;;20.15;;
32523;SDS011;18965;52.242;20.886;2022-11-15T06:30:38;44.95;;;19.35;;
32523;SDS011;18965;52.242;20.886;2022-11-15T06:35:47;39.90;;;17.48;;
32523;SDS011;18965;52.242;20.886;2022-11-15T06:38:13;38.17;;;17.73;;
32523;SDS011;18965;52.242;20.886;2022-11-15T06:40:41;41.88;;;17.67;;
32523;SDS011;18965;52.242;20.886;2022-11-15T06:43:10;35.72;;;16.75;;
32523;SDS011;18965;52.242;20.886;2022-11-15T06:45:36;39.08;;;16.92;;
32523;SDS011;18965;52.242;20.886;2022-11-15T06:48:01;40.38;;;16.33;;
32523;SDS011;18965;52.242;20.886;2022-11-15T06:50:27;39.22;;;16.30;;
32523;SDS011;18965;52.242;20.886;2022-11-15T06:52:53;38.22;;;17.60;;
32523;SDS011;18965;52.242;20.886;2022-11-15T06:55:19;42.22;;;17.58;;
32523;SDS011;18965;52.242;20.886;2022-11-15T06:57:54;40.58;;;17.25;;
32523;SDS011;18965;52.242;20.886;2022-11-15T07:00:22;36.40;;;16.08;;
32523;SDS011;18965;52.242;20.886;2022-11-15T07:02:59;38.28;;;16.30;;
32523;SDS011;18965;52.242;20.886;2022-11-15T07:05:33;38.63;;;16.50;;
32523;SDS011;18965;52.242;20.886;2022-11-15T07:08:30;37.10;;;16.25;;
32523;SDS011;18965;52.242;20.886;2022-11-15T07:11:08;44.08;;;18.63;;
32523;SDS011;18965;52.242;20.886;2022-11-15T07:17:39;50.10;;;21.40;;
32523;SDS011;18965;52.242;20.886;2022-11-15T07:20:31;45.95;;;20.92;;
32523;SDS011;18965;52.242;20.886;2022-11-15T07:23:24;38.13;;;15.98;;
32523;SDS011;18965;52.242;20.886;2022-11-15T07:26:02;37.92;;;16.73;;
32523;SDS011;18965;52.242;20.886;2022-11-15T07:28:29;38.38;;;17.52;;
32523;SDS011;18965;52.242;20.886;2022-11-15T07:30:55;34.28;;;16.23;;
32523;SDS011;18965;52.242;20.886;2022-11-15T07:33:24;44.05;;;17.92;;
32523;SDS011;18965;52.242;20.886;2022-11-15T07:36:03;42.63;;;18.73;;
32523;SDS011;18965;52.242;20.886;2022-11-15T07:38:31;35.63;;;17.00;;
32523;SDS011;18965;52.242;20.886;2022-11-15T07:41:03;36.25;;;16.10;;
32523;SDS011;18965;52.242;20.886;2022-11-15T07:43:32;38.50;;;17.10;;
32523;SDS011;18965;52.242;20.886;2022-11-15T07:45:59;37.20;;;16.50;;
32523;SDS011;18965;52.242;20.886;2022-11-15T07:48:34;35.15;;;16.73;;
32523;SDS011;18965;52.242;20.886;2022-11-15T07:51:01;41.97;;;17.65;;
32523;SDS011;18965;52.242;20.886;2022-11-15T07:53:27;41.10;;;16.67;;
32523;SDS011;18965;52.242;20.886;2022-11-15T07:55:53;35.20;;;16.30;;
32523;SDS011;18965;52.242;20.886;2022-11-15T07:58:19;45.42;;;18.67;;
32523;SDS011;18965;52.242;20.886;2022-11-15T08:00:45;37.55;;;16.15;;
32523;SDS011;18965;52.242;20.886;2022-11-15T08:03:13;32.78;;;15.15;;
32523;SDS011;18965;52.242;20.886;2022-11-15T08:05:41;33.83;;;15.18;;
32523;SDS011;18965;52.242;20.886;2022-11-15T08:08:08;41.13;;;17.20;;
32523;SDS011;18965;52.242;20.886;2022-11-15T08:10:35;37.80;;;17.02;;
32523;SDS011;18965;52.242;20.886;2022-11-15T08:13:03;40.38;;;16.40;;
32523;SDS011;18965;52.242;20.886;2022-11-15T08:15:31;34.90;;;16.08;;
32523;SDS011;18965;52.242;20.886;2022-11-15T08:17:58;35.92;;;16.15;;
32523;SDS011;18965;52.242;20.886;2022-11-15T08:20:26;35.15;;;14.93;;
32523;SDS011;18965;52.242;20.886;2022-11-15T08:22:55;32.83;;;15.65;;
32523;SDS011;18965;52.242;20.886;2022-11-15T08:25:22;40.65;;;17.65;;
32523;SDS011;18965;52.242;20.886;2022-11-15T08:27:50;38.40;;;17.45;;
32523;SDS011;18965;52.242;20.886;2022-11-15T08:30:23;48.53;;;19.30;;
32523;SDS011;18965;52.242;20.886;2022-11-15T08:33:08;39.53;;;16.27;;
32523;SDS011;18965;52.242;20.886;2022-11-15T08:35:39;36.78;;;16.48;;
32523;SDS011;18965;52.242;20.886;2022-11-15T08:38:30;37.65;;;16.85;;
32523;SDS011;18965;52.242;20.886;2022-11-15T08:41:03;42.97;;;18.83;;
32523;SDS011;18965;52.242;20.886;2022-11-15T08:43:34;39.58;;;18.23;;
32523;SDS011;18965;52.242;20.886;2022-11-15T08:46:00;43.15;;;18.60;;
32523;SDS011;18965;52.242;20.886;2022-11-15T08:48:47;32.65;;;14.90;;
32523;SDS011;18965;52.242;20.886;2022-11-15T08:51:15;33.22;;;15.73;;
32523;SDS011;18965;52.242;20.886;2022-11-15T08:53:41;35.80;;;16.90;;
32523;SDS011;18965;52.242;20.886;2022-11-15T08:56:11;34.38;;;16.30;;
32523;SDS011;18965;52.242;20.886;2022-11-15T08:58:38;39.65;;;18.17;;
32523;SDS011;18965;52.242;20.886;2022-11-15T09:01:05;37.85;;;16.88;;
32523;SDS011;18965;52.242;20.886;2022-11-15T09:03:31;35.90;;;17.60;;
32523;SDS011;18965;52.242;20.886;2022-11-15T09:05:58;36.33;;;16.83;;
32523;SDS011;18965;52.242;20.886;2022-11-15T09:08:28;32.60;;;16.88;;
32523;SDS011;18965;52.242;20.886;2022-11-15T09:13:21;37.17;;;17.02;;
32523;SDS011;18965;52.242;20.886;2022-11-15T09:15:47;34.33;;;16.65;;
32523;SDS011;18965;52.242;20.886;2022-11-15T09:18:13;33.53;;;16.48;;
32523;SDS011;18965;52.242;20.886;2022-11-15T09:20:39;36.25;;;17.00;;
32523;SDS011;18965;52.242;20.886;2022-11-15T09:23:05;34.15;;;16.50;;
32523;SDS011;18965;52.242;20.886;2022-11-15T09:25:31;40.65;;;16.63;;
32523;SDS011;18965;52.242;20.886;2022-11-15T09:27:57;36.70;;;16.88;;
32523;SDS011;18965;52.242;20.886;2022-11-15T09:30:25;36.50;;;17.95;;
32523;SDS011;18965;52.242;20.886;2022-11-15T09:32:51;34.85;;;16.30;;
32523;SDS011;18965;52.242;20.886;2022-11-15T09:35:17;33.00;;;16.35;;
32523;SDS011;18965;52.242;20.886;2022-11-15T09:37:48;35.90;;;18.20;;
32523;SDS011;18965;52.242;20.886;2022-11-15T09:40:14;43.13;;;20.50;;
32523;SDS011;18965;52.242;20.886;2022-11-15T09:50:55;35.95;;;18.15;;
32523;SDS011;18965;52.242;20.886;2022-11-15T09:53:43;41.20;;;18.30;;
32523;SDS011;18965;52.242;20.886;2022-11-15T09:56:21;36.95;;;17.80;;
32523;SDS011;18965;52.242;20.886;2022-11-15T10:04:42;35.55;;;17.65;;
32523;SDS011;18965;52.242;20.886;2022-11-15T10:07:23;38.85;;;17.63;;
32523;SDS011;18965;52.242;20.886;2022-11-15T10:12:52;40.00;;;18.80;;
32523;SDS011;18965;52.242;20.886;2022-11-15T10:15:26;39.33;;;18.73;;
32523;SDS011;18965;52.242;20.886;2022-11-15T10:24:19;38.80;;;18.73;;
32523;SDS011;18965;52.242;20.886;2022-11-15T10:26:59;43.55;;;19.73;;
32523;SDS011;18965;52.242;20.886;2022-11-15T10:29:25;42.78;;;18.98;;
32523;SDS011;18965;52.242;20.886;2022-11-15T10:31:54;41.80;;;19.33;;
32523;SDS011;18965;52.242;20.886;2022-11-15T10:34:34;46.75;;;21.23;;
32523;SDS011;18965;52.242;20.886;2022-11-15T10:37:08;52.47;;;21.55;;
32523;SDS011;18965;52.242;20.886;2022-11-15T10:39:42;45.92;;;20.15;;
32523;SDS011;18965;52.242;20.886;2022-11-15T10:42:32;43.95;;;21.27;;
32523;SDS011;18965;52.242;20.886;2022-11-15T10:45:09;39.67;;;19.42;;
32523;SDS011;18965;52.242;20.886;2022-11-15T10:50:56;39.20;;;18.83;;
32523;SDS011;18965;52.242;20.886;2022-11-15T10:53:57;43.92;;;21.83;;
32523;SDS011;18965;52.242;20.886;2022-11-15T10:56:26;40.85;;;19.65;;
32523;SDS011;18965;52.242;20.886;2022-11-15T10:58:56;41.80;;;20.23;;
32523;SDS011;18965;52.242;20.886;2022-11-15T11:01:24;40.42;;;19.27;;
32523;SDS011;18965;52.242;20.886;2022-11-15T11:04:12;40.75;;;20.65;;
32523;SDS011;18965;52.242;20.886;2022-11-15T11:07:19;46.50;;;21.00;;
32523;SDS011;18965;52.242;20.886;2022-11-15T11:10:22;46.97;;;20.85;;
32523;SDS011;18965;52.242;20.886;2022-11-15T11:21:59;44.78;;;20.30;;
32523;SDS011;18965;52.242;20.886;2022-11-15T11:24:43;44.70;;;21.48;;
32523;SDS011;18965;52.242;20.886;2022-11-15T11:30:15;49.25;;;22.27;;
32523;SDS011;18965;52.242;20.886;2022-11-15T11:53:21;48.30;;;22.20;;
32523;SDS011;18965;52.242;20.886;2022-11-15T12:08:55;47.80;;;22.58;;
32523;SDS011;18965;52.242;20.886;2022-11-15T12:17:36;45.85;;;21.98;;
32523;SDS011;18965;52.242;20.886;2022-11-15T12:20:21;51.33;;;22.23;;
32523;SDS011;18965;52.242;20.886;2022-11-15T12:23:08;40.83;;;20.83;;
32523;SDS011;18965;52.242;20.886;2022-11-15T12:28:47;39.25;;;19.70;;
32523;SDS011;18965;52.242;20.886;2022-11-15T12:37:32;44.80;;;21.10;;
32523;SDS011;18965;52.242;20.886;2022-11-15T12:40:25;43.83;;;21.47;;
32523;SDS011;18965;52.242;20.886;2022-11-15T12:45:41;43.05;;;20.95;;
32523;SDS011;18965;52.242;20.886;2022-11-15T12:50:58;44.65;;;21.67;;
32523;SDS011;18965;52.242;20.886;2022-11-15T12:53:52;54.40;;;23.40;;
32523;SDS011;18965;52.242;20.886;2022-11-15T12:56:27;44.35;;;21.40;;
32523;SDS011;18965;52.242;20.886;2022-11-15T12:58:56;27.00;;;14.33;;
32523;SDS011;18965;52.242;20.886;2022-11-15T13:04:31;44.25;;;22.08;;
32523;SDS011;18965;52.242;20.886;2022-11-15T13:07:08;41.88;;;21.55;;
32523;SDS011;18965;52.242;20.886;2022-11-15T13:16:07;49.72;;;23.63;;
32523;SDS011;18965;52.242;20.886;2022-11-15T13:19:20;51.38;;;23.45;;
32523;SDS011;18965;52.242;20.886;2022-11-15T13:27:49;48.92;;;23.92;;
32523;SDS011;18965;52.242;20.886;2022-11-15T13:30:29;53.80;;;24.85;;
32523;SDS011;18965;52.242;20.886;2022-11-15T13:33:17;47.78;;;23.83;;
32523;SDS011;18965;52.242;20.886;2022-11-15T13:36:39;76.40;;;28.45;;
32523;SDS011;18965;52.242;20.886;2022-11-15T13:46:20;47.47;;;23.17;;
32523;SDS011;18965;52.242;20.886;2022-11-15T13:49:16;48.17;;;22.42;;
32523;SDS011;18965;52.242;20.886;2022-11-15T13:51:55;50.72;;;25.02;;
32523;SDS011;18965;52.242;20.886;2022-11-15T13:58:05;49.55;;;22.83;;
32523;SDS011;18965;52.242;20.886;2022-11-15T14:01:03;46.70;;;21.02;;
32523;SDS011;18965;52.242;20.886;2022-11-15T14:03:58;45.03;;;21.95;;
32523;SDS011;18965;52.242;20.886;2022-11-15T14:07:23;48.88;;;22.23;;
32523;SDS011;18965;52.242;20.886;2022-11-15T14:10:16;55.95;;;23.75;;
32523;SDS011;18965;52.242;20.886;2022-11-15T14:13:35;44.13;;;21.77;;
32523;SDS011;18965;52.242;20.886;2022-11-15T14:16:14;48.10;;;21.95;;
32523;SDS011;18965;52.242;20.886;2022-11-15T14:19:12;51.80;;;23.60;;
32523;SDS011;18965;52.242;20.886;2022-11-15T14:27:39;46.67;;;21.90;;
32523;SDS011;18965;52.242;20.886;2022-11-15T14:30:12;47.58;;;22.42;;
32523;SDS011;18965;52.242;20.886;2022-11-15T14:32:48;47.53;;;22.10;;
32523;SDS011;18965;52.242;20.886;2022-11-15T14:38:44;51.50;;;23.70;;
32523;SDS011;18965;52.242;20.886;2022-11-15T15:02:27;65.93;;;25.95;;
32523;SDS011;18965;52.242;20.886;2022-11-15T15:05:38;56.22;;;23.77;;
32523;SDS011;18965;52.242;20.886;2022-11-15T15:24:58;55.53;;;21.92;;
32523;SDS011;18965;52.242;20.886;2022-11-15T15:27:29;60.00;;;23.23;;
32523;SDS011;18965;52.242;20.886;2022-11-15T15:40:36;50.60;;;20.58;;
32523;SDS011;18965;52.242;20.886;2022-11-15T15:43:07;54.08;;;21.23;;
32523;SDS011;18965;52.242;20.886;2022-11-15T15:48:53;54.40;;;22.38;;
32523;SDS011;18965;52.242;20.886;2022-11-15T15:51:38;54.92;;;22.38;;
32523;SDS011;18965;52.242;20.886;2022-11-15T15:54:07;61.53;;;23.65;;
32523;SDS011;18965;52.242;20.886;2022-11-15T16:00:26;49.05;;;21.77;;
32523;SDS011;18965;52.242;20.886;2022-11-15T16:03:05;63.63;;;25.08;;
32523;SDS011;18965;52.242;20.886;2022-11-15T16:05:44;53.97;;;23.58;;
32523;SDS011;18965;52.242;20.886;2022-11-15T16:08:20;53.10;;;25.05;;
32523;SDS011;18965;52.242;20.886;2022-11-15T16:10:57;53.28;;;23.10;;
32523;SDS011;18965;52.242;20.886;2022-11-15T16:13:43;45.10;;;21.17;;
32523;SDS011;18965;52.242;20.886;2022-11-15T16:16:12;51.95;;;24.13;;
32523;SDS011;18965;52.242;20.886;2022-11-15T16:22:24;59.88;;;24.65;;
32523;SDS011;18965;52.242;20.886;2022-11-15T16:25:10;61.83;;;26.25;;
32523;SDS011;18965;52.242;20.886;2022-11-15T16:27:47;66.93;;;25.67;;
32523;SDS011;18965;52.242;20.886;2022-11-15T16:34:02;61.88;;;26.98;;
32523;SDS011;18965;52.242;20.886;2022-11-15T17:08:34;71.03;;;26.42;;
32523;SDS011;18965;52.242;20.886;2022-11-15T17:11:19;51.50;;;22.73;;
32523;SDS011;18965;52.242;20.886;2022-11-15T17:13:54;58.47;;;25.38;;
32523;SDS011;18965;52.242;20.886;2022-11-15T17:20:40;51.05;;;19.85;;
32523;SDS011;18965;52.242;20.886;2022-11-15T17:38:17;60.67;;;24.50;;
32523;SDS011;18965;52.242;20.886;2022-11-15T17:45:14;61.42;;;23.73;;
32523;SDS011;18965;52.242;20.886;2022-11-15T17:47:42;61.35;;;24.60;;
32523;SDS011;18965;52.242;20.886;2022-11-15T17:50:20;87.38;;;34.25;;
32523;SDS011;18965;52.242;20.886;2022-11-15T18:21:32;66.40;;;23.52;;
32523;SDS011;18965;52.242;20.886;2022-11-15T18:36:21;39.92;;;15.88;;
32523;SDS011;18965;52.242;20.886;2022-11-15T18:39:06;36.13;;;15.38;;
32523;SDS011;18965;52.242;20.886;2022-11-15T18:41:40;39.50;;;15.98;;
32523;SDS011;18965;52.242;20.886;2022-11-15T18:44:11;41.42;;;16.55;;
32523;SDS011;18965;52.242;20.886;2022-11-15T18:46:37;46.28;;;17.65;;
32523;SDS011;18965;52.242;20.886;2022-11-15T18:49:09;48.90;;;19.45;;
32523;SDS011;18965;52.242;20.886;2022-11-15T18:51:37;38.47;;;14.60;;
32523;SDS011;18965;52.242;20.886;2022-11-15T18:54:05;40.38;;;16.92;;
32523;SDS011;18965;52.242;20.886;2022-11-15T18:56:32;40.28;;;17.48;;
32523;SDS011;18965;52.242;20.886;2022-11-15T18:58:59;45.80;;;18.17;;
32523;SDS011;18965;52.242;20.886;2022-11-15T19:01:27;40.05;;;16.83;;
32523;SDS011;18965;52.242;20.886;2022-11-15T19:06:23;88.78;;;29.48;;
32523;SDS011;18965;52.242;20.886;2022-11-15T19:08:55;66.47;;;25.02;;
32523;SDS011;18965;52.242;20.886;2022-11-15T19:11:23;68.55;;;21.95;;
32523;SDS011;18965;52.242;20.886;2022-11-15T19:19:26;30.23;;;10.85;;
32523;SDS011;18965;52.242;20.886;2022-11-15T19:21:52;38.22;;;15.60;;
32523;SDS011;18965;52.242;20.886;2022-11-15T19:24:19;33.15;;;14.60;;
32523;SDS011;18965;52.242;20.886;2022-11-15T19:26:45;52.88;;;18.63;;
32523;SDS011;18965;52.242;20.886;2022-11-15T19:29:11;51.75;;;18.83;;
32523;SDS011;18965;52.242;20.886;2022-11-15T19:31:44;54.08;;;18.95;;
32523;SDS011;18965;52.242;20.886;2022-11-15T19:34:15;37.00;;;15.10;;
32523;SDS011;18965;52.242;20.886;2022-11-15T19:36:51;47.05;;;19.02;;
32523;SDS011;18965;52.242;20.886;2022-11-15T19:39:31;45.75;;;16.40;;
32523;SDS011;18965;52.242;20.886;2022-11-15T19:41:58;48.20;;;17.15;;
32523;SDS011;18965;52.242;20.886;2022-11-15T19:44:52;51.90;;;18.10;;
32523;SDS011;18965;52.242;20.886;2022-11-15T19:47:19;41.22;;;16.20;;
32523;SDS011;18965;52.242;20.886;2022-11-15T19:49:50;71.45;;;23.00;;
32523;SDS011;18965;52.242;20.886;2022-11-15T19:52:16;48.42;;;18.55;;
32523;SDS011;18965;52.242;20.886;2022-11-15T19:54:45;39.05;;;16.05;;
32523;SDS011;18965;52.242;20.886;2022-11-15T19:57:10;39.28;;;17.13;;
32523;SDS011;18965;52.242;20.886;2022-11-15T19:59:36;42.67;;;17.10;;
32523;SDS011;18965;52.242;20.886;2022-11-15T20:02:05;43.90;;;20.77;;
32523;SDS011;18965;52.242;20.886;2022-11-15T20:04:32;42.53;;;18.95;;
32523;SDS011;18965;52.242;20.886;2022-11-15T20:06:58;41.40;;;17.08;;
32523;SDS011;18965;52.242;20.886;2022-11-15T20:09:25;32.17;;;15.40;;
32523;SDS011;18965;52.242;20.886;2022-11-15T20:12:06;35.22;;;14.73;;
32523;SDS011;18965;52.242;20.886;2022-11-15T20:14:48;48.25;;;16.13;;
32523;SDS011;18965;52.242;20.886;2022-11-15T20:17:19;26.23;;;11.32;;
32523;SDS011;18965;52.242;20.886;2022-11-15T20:22:46;30.92;;;13.45;;
32523;SDS011;18965;52.242;20.886;2022-11-15T20:25:15;32.15;;;13.23;;
32523;SDS011;18965;52.242;20.886;2022-11-15T20:27:44;32.33;;;12.48;;
32523;SDS011;18965;52.242;20.886;2022-11-15T20:30:24;38.40;;;12.27;;
32523;SDS011;18965;52.242;20.886;2022-11-15T20:32:49;27.58;;;11.18;;
32523;SDS011;18965;52.242;20.886;2022-11-15T20:35:15;24.92;;;11.32;;
32523;SDS011;18965;52.242;20.886;2022-11-15T20:37:52;26.35;;;10.52;;
32523;SDS011;18965;52.242;20.886;2022-11-15T20:40:43;24.80;;;11.07;;
32523;SDS011;18965;52.242;20.886;2022-11-15T20:43:16;29.80;;;13.50;;
32523;SDS011;18965;52.242;20.886;2022-11-15T20:45:45;34.83;;;13.27;;
32523;SDS011;18965;52.242;20.886;2022-11-15T20:48:13;33.63;;;14.77;;
32523;SDS011;18965;52.242;20.886;2022-11-15T20:50:42;34.50;;;14.88;;
32523;SDS011;18965;52.242;20.886;2022-11-15T20:53:10;37.60;;;15.65;;
32523;SDS011;18965;52.242;20.886;2022-11-15T20:55:41;29.70;;;13.00;;
32523;SDS011;18965;52.242;20.886;2022-11-15T20:58:16;33.10;;;14.60;;
32523;SDS011;18965;52.242;20.886;2022-11-15T21:00:55;44.58;;;16.60;;
32523;SDS011;18965;52.242;20.886;2022-11-15T21:03:31;28.23;;;13.60;;
32523;SDS011;18965;52.242;20.886;2022-11-15T21:06:00;29.40;;;13.25;;
32523;SDS011;18965;52.242;20.886;2022-11-15T21:08:27;31.65;;;13.07;;
32523;SDS011;18965;52.242;20.886;2022-11-15T21:11:22;31.48;;;13.82;;
32523;SDS011;18965;52.242;20.886;2022-11-15T21:17:19;27.17;;;12.45;;
32523;SDS011;18965;52.242;20.886;2022-11-15T21:19:45;29.05;;;12.85;;
32523;SDS011;18965;52.242;20.886;2022-11-15T21:22:12;26.08;;;11.75;;
32523;SDS011;18965;52.242;20.886;2022-11-15T21:24:56;27.02;;;12.30;;
32523;SDS011;18965;52.242;20.886;2022-11-15T21:27:32;30.02;;;11.98;;
32523;SDS011;18965;52.242;20.886;2022-11-15T21:30:22;33.60;;;11.15;;
32523;SDS011;18965;52.242;20.886;2022-11-15T21:32:48;26.58;;;11.90;;
32523;SDS011;18965;52.242;20.886;2022-11-15T21:35:18;31.80;;;12.32;;
32523;SDS011;18965;52.242;20.886;2022-11-15T21:37:44;26.85;;;10.95;;
32523;SDS011;18965;52.242;20.886;2022-11-15T21:40:15;29.08;;;12.05;;
32523;SDS011;18965;52.242;20.886;2022-11-15T21:42:42;25.80;;;11.52;;
32523;SDS011;18965;52.242;20.886;2022-11-15T21:45:08;25.50;;;11.57;;
32523;SDS011;18965;52.242;20.886;2022-11-15T21:47:38;25.33;;;11.00;;
32523;SDS011;18965;52.242;20.886;2022-11-15T21:50:07;39.22;;;16.23;;
32523;SDS011;18965;52.242;20.886;2022-11-15T21:52:34;21.15;;;9.50;;
32523;SDS011;18965;52.242;20.886;2022-11-15T21:55:03;23.75;;;9.50;;
32523;SDS011;18965;52.242;20.886;2022-11-15T21:57:29;17.85;;;8.77;;
32523;SDS011;18965;52.242;20.886;2022-11-15T22:00:00;26.47;;;11.07;;
32523;SDS011;18965;52.242;20.886;2022-11-15T22:02:45;23.80;;;10.23;;
32523;SDS011;18965;52.242;20.886;2022-11-15T22:05:11;23.55;;;9.80;;
32523;SDS011;18965;52.242;20.886;2022-11-15T22:07:43;19.38;;;8.45;;
32523;SDS011;18965;52.242;20.886;2022-11-15T22:10:45;30.90;;;11.18;;
32523;SDS011;18965;52.242;20.886;2022-11-15T22:13:23;34.08;;;14.07;;
32523;SDS011;18965;52.242;20.886;2022-11-15T22:15:50;26.48;;;10.23;;
32523;SDS011;18965;52.242;20.886;2022-11-15T22:18:20;20.25;;;8.95;;